Time;durP1;ratioP1;P1;durP2;ratioP2;P2;SDS_P1;SDS_P2;PMS_P1;PMS_P2;Temp;Humidity;BMP_temperature;BMP_pressure;BME280_temperature;BME280_humidity;BME280_pressure;Samples;Min_cycle;Max_cycle;Signal;HPM_P1;HPM_P2
2022/06/14 00:03:01;;;;;;;2.10;0.70;;;18.30;1.00;;;;;;5097381;28;20738;-77
2022/06/14 00:05:28;;;;;;;1.53;0.60;;;18.20;1.00;;;;;;5097160;28;20445;-76
2022/06/14 00:07:55;;;;;;;0.97;0.70;;;18.10;1.00;;;;;;5097661;28;20457;-77
2022/06/14 00:10:22;;;;;;;1.13;0.70;;;18.00;1.00;;;;;;5097068;28;20939;-76
2022/06/14 00:12:50;;;;;;;1.30;0.70;;;17.90;14.40;;;;;;5097140;28;20481;-77
2022/06/14 00:15:18;;;;;;;0.80;0.60;;;17.90;98.10;;;;;;5097480;28;20441;-77
2022/06/14 00:17:45;;;;;;;3.00;0.70;;;17.90;99.90;;;;;;5096408;28;20463;-76
2022/06/14 00:20:13;;;;;;;1.83;0.60;;;18.00;99.90;;;;;;5096832;28;20487;-77
2022/06/14 00:22:40;;;;;;;1.73;1.03;;;18.00;99.90;;;;;;5096792;28;20889;-77
2022/06/14 00:25:08;;;;;;;1.10;0.60;;;17.90;99.90;;;;;;5099125;28;20872;-77
2022/06/14 00:27:35;;;;;;;0.90;0.60;;;17.90;99.90;;;;;;5100833;28;20464;-77
2022/06/14 00:30:04;;;;;;;1.90;0.70;;;17.80;99.90;;;;;;5100158;28;20888;-76
2022/06/14 00:32:31;;;;;;;1.00;0.70;;;17.70;99.90;;;;;;5099995;28;20831;-76
2022/06/14 00:34:58;;;;;;;1.70;0.60;;;17.70;99.90;;;;;;5100295;28;20885;-77
2022/06/14 00:37:25;;;;;;;1.43;0.70;;;17.70;99.90;;;;;;5099511;28;20510;-76
2022/06/14 00:39:52;;;;;;;1.93;0.90;;;17.60;99.90;;;;;;5100472;28;20781;-77
2022/06/14 00:42:21;;;;;;;1.30;0.70;;;17.50;99.90;;;;;;5099484;28;20488;-77
2022/06/14 00:45:08;;;;;;;1.60;0.70;;;17.30;99.90;;;;;;5100020;28;20451;-76
2022/06/14 00:47:40;;;;;;;1.00;0.70;;;17.20;99.90;;;;;;5099041;28;20738;-76
2022/06/14 00:50:15;;;;;;;1.10;0.60;;;17.20;1.00;;;;;;5099607;28;20495;-75
2022/06/14 00:52:46;;;;;;;2.40;0.83;;;17.30;1.00;;;;;;5099417;28;20477;-76
2022/06/14 00:55:17;;;;;;;1.00;0.60;;;17.20;99.90;;;;;;5100935;28;20497;-76
2022/06/14 00:57:48;;;;;;;1.20;0.60;;;17.10;1.00;;;;;;5100154;28;20522;-76
2022/06/14 01:00:19;;;;;;;1.20;0.70;;;17.10;1.00;;;;;;5098758;28;20815;-76
2022/06/14 01:02:52;;;;;;;1.77;0.70;;;17.00;1.00;;;;;;5099755;28;20550;-77
2022/06/14 01:05:23;;;;;;;0.90;0.60;;;17.00;1.00;;;;;;5099335;28;20485;-76
2022/06/14 01:07:55;;;;;;;1.20;0.70;;;17.10;1.00;;;;;;5099525;28;20503;-76
2022/06/14 01:10:27;;;;;;;1.20;0.60;;;17.20;1.00;;;;;;5099420;28;20488;-76
2022/06/14 01:12:57;;;;;;;0.90;0.60;;;17.20;1.00;;;;;;5099559;28;20523;-76
2022/06/14 01:15:29;;;;;;;1.30;0.80;;;17.10;1.00;;;;;;5099586;28;20647;-76
2022/06/14 01:18:02;;;;;;;1.00;0.70;;;17.00;1.00;;;;;;5100043;28;20487;-76
2022/06/14 01:20:29;;;;;;;1.43;0.70;;;16.90;1.00;;;;;;5100697;28;20818;-76
2022/06/14 01:22:58;;;;;;;1.10;0.70;;;16.90;1.00;;;;;;5100964;28;20454;-75
2022/06/14 01:25:29;;;;;;;1.07;0.60;;;16.80;1.00;;;;;;5100321;28;20511;-76
2022/06/14 01:27:57;;;;;;;2.43;0.80;;;16.80;1.00;;;;;;5100989;28;20480;-76
2022/06/14 01:30:33;;;;;;;0.90;0.70;;;16.80;54.70;;;;;;5100499;28;20927;-76
2022/06/14 01:33:02;;;;;;;0.90;0.70;;;16.90;99.90;;;;;;5099881;28;20496;-75
2022/06/14 01:35:35;;;;;;;0.80;0.60;;;17.00;1.00;;;;;;5100138;28;20904;-76
2022/06/14 01:38:06;;;;;;;1.30;0.80;;;17.00;1.00;;;;;;5081446;28;20459;-76
2022/06/14 01:40:42;;;;;;;1.20;0.80;;;17.10;1.00;;;;;;5100028;28;20540;-75
2022/06/14 01:43:23;;;;;;;1.00;0.60;;;17.20;1.00;;;;;;5100176;28;20453;-76
2022/06/14 01:46:00;;;;;;;0.80;0.70;;;17.10;1.00;;;;;;5099898;28;20430;-76
2022/06/14 01:48:31;;;;;;;1.93;0.90;;;17.00;1.00;;;;;;5100365;28;20440;-76
2022/06/14 01:54:00;;;;;;;1.80;0.80;;;16.80;1.00;;;;;;5099544;28;20534;-76
2022/06/14 01:56:39;;;;;;;1.10;0.83;;;16.60;1.00;;;;;;5099894;28;20461;-76
2022/06/14 01:59:16;;;;;;;1.00;0.73;;;16.50;1.00;;;;;;5100602;28;20434;-75
2022/06/14 02:01:58;;;;;;;2.20;0.70;;;16.50;1.00;;;;;;5099954;28;20465;-75
2022/06/14 02:04:39;;;;;;;1.47;0.87;;;16.40;95.80;;;;;;5099776;28;20509;-75
2022/06/14 02:07:14;;;;;;;3.57;0.80;;;16.30;99.90;;;;;;5099281;28;20445;-75
2022/06/14 02:09:52;;;;;;;1.30;0.67;;;16.10;99.90;;;;;;5099563;28;20445;-75
2022/06/14 02:12:28;;;;;;;4.00;0.70;;;16.20;1.00;;;;;;5099401;28;20755;-75
2022/06/14 02:15:01;;;;;;;2.20;0.80;;;16.20;1.00;;;;;;5099379;28;20946;-75
2022/06/14 02:17:36;;;;;;;1.10;0.57;;;16.20;1.00;;;;;;5099162;28;20829;-74
2022/06/14 02:20:07;;;;;;;2.80;0.70;;;16.30;35.60;;;;;;5099407;28;20437;-74
2022/06/14 02:22:39;;;;;;;0.90;0.60;;;16.40;1.00;;;;;;5099015;28;20454;-75
2022/06/14 02:25:13;;;;;;;0.90;0.70;;;16.40;1.00;;;;;;5098780;28;20532;-75
2022/06/14 02:27:46;;;;;;;1.40;0.80;;;16.40;1.00;;;;;;5099377;28;20542;-74
2022/06/14 02:30:17;;;;;;;1.00;0.70;;;16.30;1.00;;;;;;5098861;28;20923;-76
2022/06/14 02:32:46;;;;;;;1.80;0.70;;;16.20;1.00;;;;;;5098839;28;20489;-75
2022/06/14 02:35:20;;;;;;;1.03;0.80;;;16.10;10.40;;;;;;5098981;28;20450;-76
2022/06/14 02:37:52;;;;;;;0.90;0.80;;;16.10;99.90;;;;;;5098698;28;20495;-76
2022/06/14 02:40:24;;;;;;;1.10;0.80;;;16.10;1.00;;;;;;5098737;28;20449;-76
2022/06/14 02:43:00;;;;;;;1.10;0.77;;;16.10;99.90;;;;;;5098621;28;20453;-76
2022/06/14 02:45:34;;;;;;;1.40;0.80;;;16.10;99.90;;;;;;5098606;28;20435;-76
2022/06/14 02:48:06;;;;;;;2.03;0.80;;;15.90;99.90;;;;;;5097456;28;20490;-77
2022/06/14 02:50:39;;;;;;;1.10;0.70;;;15.80;1.00;;;;;;5098684;28;20441;-76
2022/06/14 02:53:14;;;;;;;1.53;0.70;;;15.80;1.00;;;;;;5098661;28;20924;-76
2022/06/14 02:55:48;;;;;;;1.53;0.80;;;15.80;1.00;;;;;;5098838;28;20460;-76
2022/06/14 02:58:20;;;;;;;1.90;0.80;;;15.90;99.90;;;;;;5098592;28;20508;-76
2022/06/14 03:00:52;;;;;;;2.03;0.80;;;15.90;14.30;;;;;;5098694;28;20511;-76
2022/06/14 03:03:22;;;;;;;1.23;0.80;;;15.90;1.00;;;;;;5099036;28;20471;-76
2022/06/14 03:05:54;;;;;;;1.97;0.80;;;15.80;1.00;;;;;;5098977;28;20465;-76
2022/06/14 03:08:25;;;;;;;1.00;0.70;;;15.80;99.90;;;;;;5098411;28;20454;-76
2022/06/14 03:11:05;;;;;;;1.57;0.70;;;15.80;99.90;;;;;;5098755;28;20800;-76
2022/06/14 03:13:39;;;;;;;1.10;0.80;;;15.80;1.00;;;;;;5098321;28;20478;-77
2022/06/14 03:16:19;;;;;;;1.90;0.80;;;15.90;1.00;;;;;;5098513;28;20449;-77
2022/06/14 03:18:52;;;;;;;1.10;0.70;;;16.00;1.00;;;;;;5098333;28;20753;-77
2022/06/14 03:21:22;;;;;;;1.40;0.83;;;16.00;99.90;;;;;;5098863;28;20441;-77
2022/06/14 03:23:54;;;;;;;2.90;0.87;;;15.90;1.00;;;;;;5097428;28;20449;-77
2022/06/14 03:26:32;;;;;;;2.40;0.80;;;15.90;99.90;;;;;;5097743;28;20480;-76
2022/06/14 03:29:05;;;;;;;2.10;0.90;;;15.80;1.00;;;;;;5098862;28;20450;-76
2022/06/14 03:31:36;;;;;;;1.10;0.70;;;15.70;99.90;;;;;;5098550;28;20453;-77
2022/06/14 03:34:17;;;;;;;1.80;0.80;;;15.60;1.00;;;;;;5096963;28;20473;-77
2022/06/14 03:36:44;;;;;;;1.20;0.80;;;15.60;1.00;;;;;;5097071;28;20457;-76
2022/06/14 03:39:14;;;;;;;1.40;0.90;;;15.50;1.00;;;;;;5097410;28;20446;-76
2022/06/14 03:41:45;;;;;;;1.80;0.90;;;15.50;99.90;;;;;;5097540;28;20512;-76
2022/06/14 03:44:14;;;;;;;1.80;0.97;;;15.50;69.10;;;;;;5097695;28;20491;-77
2022/06/14 03:46:45;;;;;;;1.57;0.80;;;15.50;1.00;;;;;;5097402;28;20458;-76
2022/06/14 03:49:15;;;;;;;1.20;0.80;;;15.40;1.00;;;;;;5097591;28;20515;-77
2022/06/14 03:51:52;;;;;;;1.37;1.00;;;15.30;44.80;;;;;;5097396;28;20453;-76
2022/06/14 03:54:40;;;;;;;2.83;1.00;;;15.30;1.00;;;;;;5097704;28;20539;-77
2022/06/14 03:57:19;;;;;;;1.40;0.90;;;15.30;1.00;;;;;;5097177;28;20530;-77
2022/06/14 04:00:04;;;;;;;1.57;0.83;;;15.30;1.00;;;;;;5096901;28;20446;-76
2022/06/14 04:02:55;;;;;;;2.90;1.20;;;15.30;1.00;;;;;;5096777;28;20892;-76
2022/06/14 04:05:35;;;;;;;1.30;0.90;;;15.30;1.00;;;;;;5096876;28;20445;-76
2022/06/14 04:08:14;;;;;;;1.90;0.80;;;15.30;99.90;;;;;;5097373;28;20817;-76
2022/06/14 04:10:45;;;;;;;2.20;0.90;;;15.30;1.00;;;;;;5097353;28;20492;-76
2022/06/14 04:13:19;;;;;;;4.27;0.90;;;15.40;1.00;;;;;;5096923;28;20442;-77
2022/06/14 04:15:51;;;;;;;1.83;0.90;;;15.40;99.90;;;;;;5096788;28;20881;-77
2022/06/14 04:18:36;;;;;;;1.50;0.80;;;15.40;99.90;;;;;;5097378;28;20826;-76
2022/06/14 04:21:12;;;;;;;1.97;0.80;;;15.40;99.90;;;;;;5097051;28;20512;-77
2022/06/14 04:23:46;;;;;;;2.40;1.07;;;15.40;99.90;;;;;;5097026;28;20481;-77
2022/06/14 04:26:20;;;;;;;1.90;0.90;;;15.30;1.00;;;;;;5096592;28;20442;-76
2022/06/14 04:28:55;;;;;;;1.30;0.80;;;15.40;1.00;;;;;;5100421;28;20438;-76
2022/06/14 04:31:28;;;;;;;1.40;0.80;;;15.50;99.90;;;;;;5096941;28;20472;-76
2022/06/14 04:34:02;;;;;;;3.70;0.80;;;15.50;1.00;;;;;;5098187;28;20629;-77
2022/06/14 04:36:33;;;;;;;2.00;0.90;;;15.50;1.00;;;;;;5096943;28;20549;-77
2022/06/14 04:39:05;;;;;;;2.50;1.00;;;15.50;99.90;;;;;;5101526;28;20472;-82
2022/06/14 04:41:47;;;;;;;1.47;0.97;;;15.50;99.90;;;;;;5107085;28;20519;-82
2022/06/14 04:44:19;;;;;;;2.20;1.13;;;15.50;99.90;;;;;;5104665;28;20467;-82
2022/06/14 04:46:53;;;;;;;2.37;0.90;;;15.40;99.90;;;;;;5099247;28;20434;-81
2022/06/14 04:49:24;;;;;;;1.47;0.70;;;15.50;81.60;;;;;;5078778;28;20764;-81
2022/06/14 04:51:55;;;;;;;1.97;1.00;;;15.60;1.00;;;;;;5096792;28;20503;-78
2022/06/14 04:54:29;;;;;;;2.23;1.00;;;15.60;1.00;;;;;;5098154;28;20576;-78
2022/06/14 04:57:01;;;;;;;3.03;0.90;;;15.40;99.90;;;;;;5096397;28;20789;-79
2022/06/14 04:59:34;;;;;;;2.37;0.83;;;15.40;1.00;;;;;;5094788;28;20512;-76
2022/06/14 05:02:10;;;;;;;1.50;1.10;;;15.30;1.00;;;;;;5095741;28;20446;-76
2022/06/14 05:04:43;;;;;;;2.10;0.83;;;15.30;1.00;;;;;;5094832;28;20848;-76
2022/06/14 05:07:17;;;;;;;4.20;1.33;;;15.20;99.90;;;;;;5094936;28;20473;-77
2022/06/14 05:09:51;;;;;;;3.43;1.00;;;15.20;99.90;;;;;;5095061;28;20522;-74
2022/06/14 05:12:23;;;;;;;3.60;0.90;;;15.30;99.90;;;;;;5096170;28;20936;-74
2022/06/14 05:14:57;;;;;;;1.60;1.00;;;15.20;1.00;;;;;;5096460;28;20944;-75
2022/06/14 05:17:31;;;;;;;1.20;0.80;;;15.10;21.00;;;;;;5097009;28;20543;-75
2022/06/14 05:20:04;;;;;;;4.03;0.90;;;15.20;99.90;;;;;;5097269;28;20924;-75
2022/06/14 05:22:35;;;;;;;2.17;0.93;;;15.40;99.90;;;;;;5098406;28;20824;-76
2022/06/14 05:25:04;;;;;;;2.03;1.10;;;15.50;1.00;;;;;;5098314;28;20914;-76
2022/06/14 05:27:43;;;;;;;2.53;1.00;;;15.60;99.90;;;;;;5097249;28;20456;-75
2022/06/14 05:30:25;;;;;;;1.20;0.90;;;15.60;1.00;;;;;;5097105;28;20460;-75
2022/06/14 05:32:58;;;;;;;3.83;1.30;;;15.50;1.00;;;;;;5096930;28;20861;-76
2022/06/14 05:35:34;;;;;;;4.27;0.90;;;15.50;99.90;;;;;;5097732;28;20862;-76
2022/06/14 05:38:13;;;;;;;3.83;1.00;;;15.60;1.00;;;;;;5097722;28;20491;-76
2022/06/14 05:40:46;;;;;;;2.10;1.10;;;16.00;1.00;;;;;;5095730;28;20505;-76
2022/06/14 05:43:19;;;;;;;2.43;1.00;;;16.30;1.00;;;;;;5098148;28;20868;-76
2022/06/14 05:45:51;;;;;;;1.10;0.80;;;16.20;1.00;;;;;;5099732;28;20492;-76
2022/06/14 05:48:25;;;;;;;3.03;0.90;;;16.10;99.90;;;;;;5098450;28;20489;-77
2022/06/14 05:50:55;;;;;;;2.10;1.00;;;16.10;37.70;;;;;;5099118;28;20536;-77
2022/06/14 05:53:29;;;;;;;1.40;0.90;;;16.20;1.00;;;;;;5098509;28;20520;-77
2022/06/14 05:56:02;;;;;;;3.10;1.10;;;16.10;1.00;;;;;;5098075;28;20442;-76
2022/06/14 05:58:35;;;;;;;2.40;1.03;;;16.10;1.00;;;;;;5099985;28;20524;-77
2022/06/14 06:01:11;;;;;;;2.23;1.00;;;16.20;1.00;;;;;;5115505;28;20456;-76
2022/06/14 06:03:45;;;;;;;2.17;1.10;;;16.40;1.00;;;;;;5104065;28;20454;-76
2022/06/14 06:06:17;;;;;;;2.53;1.17;;;16.50;1.00;;;;;;5098818;28;20570;-76
2022/06/14 06:08:47;;;;;;;1.90;1.00;;;16.60;1.00;;;;;;5097162;28;20489;-77
2022/06/14 06:11:19;;;;;;;1.60;0.97;;;16.60;99.90;;;;;;5097246;28;20488;-78
2022/06/14 06:13:50;;;;;;;3.57;1.07;;;16.70;99.90;;;;;;5092606;28;20465;-76
2022/06/14 06:16:25;;;;;;;1.70;1.00;;;16.90;99.90;;;;;;5081561;28;20455;-76
2022/06/14 06:18:57;;;;;;;2.10;0.93;;;17.20;99.90;;;;;;5096417;28;20453;-76
2022/06/14 06:21:31;;;;;;;2.60;1.03;;;17.40;1.00;;;;;;5099856;28;20514;-77
2022/06/14 06:24:03;;;;;;;2.77;1.20;;;17.50;1.00;;;;;;5109139;28;20479;-76
2022/06/14 06:26:35;;;;;;;6.43;1.00;;;17.40;1.00;;;;;;5102546;28;20495;-76
2022/06/14 06:29:08;;;;;;;2.37;1.00;;;17.30;1.00;;;;;;5096263;28;20480;-76
2022/06/14 06:31:38;;;;;;;2.17;1.10;;;17.40;1.00;;;;;;5095524;28;20587;-73
2022/06/14 06:34:10;;;;;;;1.43;1.10;;;17.40;1.00;;;;;;5094425;28;20604;-75
2022/06/14 06:36:47;;;;;;;1.70;0.87;;;17.50;1.00;;;;;;5095816;28;20523;-77
2022/06/14 06:39:30;;;;;;;2.63;1.07;;;17.60;1.00;;;;;;5096758;28;20706;-77
2022/06/14 06:42:03;;;;;;;2.43;1.13;;;17.90;1.00;;;;;;5098816;28;20453;-77
2022/06/14 06:44:39;;;;;;;2.10;1.10;;;17.90;99.90;;;;;;5097574;28;20449;-77
2022/06/14 06:47:16;;;;;;;1.70;1.10;;;17.90;99.90;;;;;;5078353;28;20445;-78
2022/06/14 06:49:58;;;;;;;2.17;1.13;;;18.00;99.90;;;;;;5098537;28;20497;-77
2022/06/14 06:52:33;;;;;;;1.93;1.20;;;18.20;99.90;;;;;;5104250;28;20584;-78
2022/06/14 06:55:07;;;;;;;2.53;1.60;;;18.40;99.90;;;;;;5108735;28;20493;-77
2022/06/14 06:57:37;;;;;;;2.27;1.30;;;18.50;99.90;;;;;;5075843;28;20512;-77
2022/06/14 07:00:05;;;;;;;3.63;1.63;;;18.60;99.90;;;;;;5075887;28;20959;-77
2022/06/14 07:02:45;;;;;;;1.87;1.10;;;18.50;99.90;;;;;;5089194;28;20449;-79
2022/06/14 07:05:15;;;;;;;2.27;1.10;;;18.50;99.90;;;;;;5096487;28;20460;-77
2022/06/14 07:07:58;;;;;;;2.60;1.17;;;18.50;99.90;;;;;;5096083;28;20887;-77
2022/06/14 07:10:36;;;;;;;2.97;1.20;;;18.40;99.90;;;;;;5096538;28;20488;-74
2022/06/14 07:13:10;;;;;;;6.63;1.30;;;18.40;99.90;;;;;;5114485;28;20835;-74
2022/06/14 07:15:42;;;;;;;3.87;1.40;;;18.40;99.90;;;;;;5116070;28;20507;-74
2022/06/14 07:18:20;;;;;;;6.00;1.40;;;18.40;99.90;;;;;;5115619;28;20512;-75
2022/06/14 07:20:58;;;;;;;3.07;1.30;;;18.40;99.90;;;;;;5115757;28;20450;-74
2022/06/14 07:23:35;;;;;;;2.43;1.10;;;18.70;99.90;;;;;;5115999;28;20888;-74
2022/06/14 07:26:14;;;;;;;2.47;1.13;;;18.70;88.60;;;;;;5113990;28;20444;-75
2022/06/14 07:28:51;;;;;;;1.90;1.03;;;18.80;90.70;;;;;;5092541;28;20888;-74
2022/06/14 07:31:25;;;;;;;5.83;1.20;;;18.90;26.40;;;;;;5104433;28;20788;-74
2022/06/14 07:33:55;;;;;;;3.13;1.40;;;19.10;1.00;;;;;;5094869;28;20450;-73
2022/06/14 07:36:29;;;;;;;2.00;0.90;;;19.20;1.00;;;;;;5096148;28;21174;-75
2022/06/14 07:39:04;;;;;;;1.40;1.00;;;19.30;1.00;;;;;;5096392;28;20465;-75
2022/06/14 07:41:40;;;;;;;2.40;0.90;;;19.40;1.00;;;;;;5096732;28;20456;-76
2022/06/14 07:44:18;;;;;;;1.55;1.00;;;19.60;1.00;;;;;;5083219;28;20492;-75
2022/06/14 07:46:56;;;;;;;1.47;1.00;;;19.80;1.00;;;;;;5076329;28;20248;-77
2022/06/14 07:49:32;;;;;;;2.63;1.00;;;19.80;1.00;;;;;;5076912;28;20515;-76
2022/06/14 07:52:06;;;;;;;2.63;1.17;;;20.00;1.00;;;;;;5095790;28;20456;-78
2022/06/14 07:54:37;;;;;;;1.80;0.93;;;20.20;1.00;;;;;;5095379;28;20516;-78
2022/06/14 07:57:11;;;;;;;2.93;2.10;;;20.40;1.00;;;;;;5095539;28;20441;-78
2022/06/14 07:59:44;;;;;;;2.13;1.23;;;20.50;1.00;;;;;;5095407;28;20543;-79
2022/06/14 08:02:20;;;;;;;1.87;1.00;;;20.40;1.00;;;;;;5094798;28;20877;-82
2022/06/14 08:04:55;;;;;;;2.17;0.93;;;20.40;1.00;;;;;;5095560;28;21048;-81
2022/06/14 08:07:23;;;;;;;2.37;1.00;;;20.50;1.00;;;;;;5096958;28;20988;-81
2022/06/14 08:09:56;;;;;;;2.97;1.40;;;20.60;1.00;;;;;;5097530;28;20453;-81
2022/06/14 08:12:30;;;;;;;3.27;1.13;;;20.70;1.00;;;;;;5096149;28;20521;-81
2022/06/14 08:15:01;;;;;;;1.67;1.00;;;20.70;1.00;;;;;;5096453;28;20548;-76
2022/06/14 08:17:35;;;;;;;2.60;1.00;;;20.90;1.00;;;;;;5095550;28;21089;-76
2022/06/14 08:20:12;;;;;;;3.03;0.80;;;21.10;1.00;;;;;;5074418;28;20457;-77
2022/06/14 08:22:48;;;;;;;1.30;0.90;;;21.10;1.00;;;;;;5073780;28;20451;-76
2022/06/14 08:25:19;;;;;;;1.60;0.90;;;21.10;1.00;;;;;;5080834;28;20479;-76
2022/06/14 08:27:49;;;;;;;2.20;1.07;;;21.00;1.00;;;;;;5093804;28;21122;-75
2022/06/14 08:30:20;;;;;;;1.93;0.90;;;21.10;1.00;;;;;;5093184;28;20535;-78
2022/06/14 08:32:52;;;;;;;1.40;0.90;;;21.30;1.00;;;;;;5091053;28;20560;-76
2022/06/14 08:35:27;;;;;;;1.73;0.90;;;21.30;1.00;;;;;;5092282;28;20590;-75
2022/06/14 08:38:01;;;;;;;1.37;0.93;;;21.40;1.00;;;;;;5094236;28;20942;-76
2022/06/14 08:40:48;;;;;;;1.70;1.00;;;21.50;1.00;;;;;;5111062;28;20480;-75
2022/06/14 08:43:21;;;;;;;1.50;1.00;;;21.60;1.00;;;;;;5114411;28;20441;-75
2022/06/14 08:46:12;;;;;;;1.83;1.00;;;21.40;1.00;;;;;;5115919;28;20957;-77
2022/06/14 08:48:42;;;;;;;1.20;0.80;;;21.10;1.00;;;;;;5118847;28;20462;-76
2022/06/14 08:51:31;;;;;;;5.17;1.10;;;21.10;1.00;;;;;;5119494;28;20526;-76
2022/06/14 08:54:31;;;;;;;1.50;0.80;;;21.20;1.00;;;;;;5118723;28;20950;-75
2022/06/14 08:57:10;;;;;;;2.30;0.93;;;21.60;1.00;;;;;;5117692;28;20440;-73
2022/06/14 09:00:05;;;;;;;1.23;0.80;;;21.80;1.00;;;;;;5103433;28;20477;-73
2022/06/14 09:03:03;;;;;;;1.33;0.90;;;22.00;1.00;;;;;;5095200;28;20889;-75
2022/06/14 09:05:45;;;;;;;4.27;0.90;;;21.90;1.00;;;;;;5107517;28;20479;-73
2022/06/14 09:08:50;;;;;;;1.53;0.90;;;22.00;1.00;;;;;;5118874;28;20462;-73
2022/06/14 09:12:03;;;;;;;3.63;1.00;;;22.00;1.00;;;;;;5021618;28;20882;-75
2022/06/14 09:15:03;;;;;;;1.43;0.90;;;22.00;1.00;;;;;;5097436;28;20460;-75
2022/06/14 09:18:13;;;;;;;2.27;0.90;;;22.10;1.00;;;;;;5116431;28;20476;-75
2022/06/14 09:20:45;;;;;;;2.10;0.80;;;22.40;1.00;;;;;;5098704;28;20476;-73
2022/06/14 09:23:21;;;;;;;0.90;0.80;;;22.60;1.00;;;;;;5097599;28;20441;-74
2022/06/14 09:26:18;;;;;;;2.80;0.90;;;22.80;1.00;;;;;;5085467;28;20530;-74
2022/06/14 09:29:36;;;;;;;1.47;0.90;;;22.90;1.00;;;;;;5081938;28;20476;-74
2022/06/14 09:33:09;;;;;;;1.30;0.90;;;22.90;1.00;;;;;;5017315;28;21008;-72
2022/06/14 09:35:44;;;;;;;1.10;0.70;;;22.80;1.00;;;;;;5082140;28;20566;-74
2022/06/14 09:38:42;;;;;;;1.57;0.80;;;22.80;1.00;;;;;;5098338;28;20932;-74
2022/06/14 09:41:27;;;;;;;2.40;0.80;;;22.90;1.00;;;;;;5097840;28;20540;-75
2022/06/14 09:44:24;;;;;;;1.93;0.87;;;22.90;1.00;;;;;;5096185;28;20453;-75
2022/06/14 09:47:23;;;;;;;2.30;0.80;;;22.70;1.00;;;;;;5097707;28;20434;-75
2022/06/14 09:50:27;;;;;;;3.83;1.97;;;22.70;1.00;;;;;;5081778;28;20453;-74
2022/06/14 09:53:27;;;;;;;1.53;0.90;;;22.90;1.00;;;;;;5094606;28;20498;-74
2022/06/14 09:56:25;;;;;;;1.20;0.90;;;23.30;1.00;;;;;;5096010;28;20595;-76
2022/06/14 09:59:27;;;;;;;1.43;0.73;;;23.50;1.00;;;;;;5085947;28;20515;-72
2022/06/14 10:02:05;;;;;;;2.53;0.90;;;23.70;1.00;;;;;;5073842;28;20457;-73
2022/06/14 10:04:58;;;;;;;1.10;0.83;;;24.00;1.00;;;;;;5094818;28;20540;-75
2022/06/14 10:07:49;;;;;;;1.10;0.90;;;24.00;1.00;;;;;;5095892;28;20532;-76
2022/06/14 10:10:41;;;;;;;1.10;0.70;;;24.20;1.00;;;;;;5097304;28;20575;-76
2022/06/14 10:13:53;;;;;;;2.30;0.70;;;24.30;1.00;;;;;;5097481;28;20474;-76
2022/06/14 10:16:59;;;;;;;2.00;0.90;;;24.50;1.00;;;;;;5047916;28;20576;-76
2022/06/14 10:19:58;;;;;;;1.97;0.80;;;24.80;1.00;;;;;;5087879;28;20483;-76
2022/06/14 10:22:36;;;;;;;1.00;0.73;;;24.70;1.00;;;;;;5085384;28;20456;-76
2022/06/14 10:25:11;;;;;;;1.07;0.83;;;25.00;1.00;;;;;;5090945;28;20548;-76
2022/06/14 10:30:46;;;;;;;2.67;0.80;;;25.30;1.00;;;;;;5093838;28;20429;-76
2022/06/14 10:33:46;;;;;;;1.33;0.90;;;25.70;1.00;;;;;;5092272;28;20888;-77
2022/06/14 10:36:50;;;;;;;1.27;0.73;;;25.60;1.00;;;;;;5087481;28;20516;-76
2022/06/14 10:39:43;;;;;;;0.87;0.70;;;26.10;1.00;;;;;;5084437;28;20485;-76
2022/06/14 10:42:17;;;;;;;1.27;0.93;;;26.40;1.00;;;;;;5080290;28;20456;-76
2022/06/14 10:44:53;;;;;;;1.73;0.70;;;26.60;1.00;;;;;;5090556;28;20552;-75
2022/06/14 10:47:40;;;;;;;1.30;1.10;;;26.10;1.00;;;;;;5088019;28;20772;-75
2022/06/14 10:50:26;;;;;;;1.07;0.70;;;26.60;1.00;;;;;;5089656;28;20449;-76
2022/06/14 10:53:04;;;;;;;1.20;0.80;;;27.30;1.00;;;;;;5093215;28;20944;-76
2022/06/14 10:55:53;;;;;;;1.60;0.80;;;27.30;1.00;;;;;;5091941;28;20481;-76
2022/06/14 10:58:55;;;;;;;1.50;0.80;;;27.60;1.00;;;;;;5092358;28;20473;-77
2022/06/14 11:01:38;;;;;;;1.90;0.80;;;27.20;1.00;;;;;;5092932;28;20509;-77
2022/06/14 11:04:16;;;;;;;2.13;0.90;;;27.00;1.00;;;;;;5089500;28;20676;-77
2022/06/14 11:07:10;;;;;;;1.07;0.90;;;27.50;1.00;;;;;;5093725;28;20481;-76
2022/06/14 11:09:50;;;;;;;0.87;0.80;;;27.80;1.00;;;;;;5089663;28;20780;-75
2022/06/14 11:12:33;;;;;;;2.00;0.90;;;27.70;1.00;;;;;;5093685;28;20608;-75
2022/06/14 11:15:05;;;;;;;1.20;0.80;;;28.00;1.00;;;;;;5093312;28;20619;-77
2022/06/14 11:17:53;;;;;;;2.60;1.43;;;28.40;1.00;;;;;;5094933;28;20446;-76
2022/06/14 11:20:33;;;;;;;1.07;0.80;;;28.80;1.00;;;;;;5093970;28;20454;-76
2022/06/14 11:23:11;;;;;;;1.60;0.80;;;29.20;1.00;;;;;;5095611;28;20967;-75
2022/06/14 11:25:44;;;;;;;1.10;0.83;;;29.20;1.00;;;;;;5095632;28;20442;-76
2022/06/14 11:28:23;;;;;;;1.80;0.80;;;28.10;1.00;;;;;;5087765;28;21042;-74
2022/06/14 11:31:08;;;;;;;1.20;0.80;;;28.30;1.00;;;;;;5087240;28;20461;-74
2022/06/14 11:33:52;;;;;;;1.30;0.80;;;28.50;1.00;;;;;;5076395;28;20490;-78
2022/06/14 11:36:40;;;;;;;2.40;0.80;;;28.80;1.00;;;;;;5070813;28;20482;-72
2022/06/14 11:39:31;;;;;;;1.10;0.73;;;28.30;1.00;;;;;;5074777;28;20462;-74
2022/06/14 11:42:04;;;;;;;1.57;0.80;;;28.70;1.00;;;;;;5083180;28;20462;-73
2022/06/14 11:44:52;;;;;;;1.50;0.70;;;28.60;1.00;;;;;;5086029;28;20556;-74
2022/06/14 11:47:29;;;;;;;0.97;0.70;;;28.70;1.00;;;;;;5076749;28;20784;-74
2022/06/14 11:50:09;;;;;;;0.97;0.70;;;28.80;1.00;;;;;;5073247;28;20889;-75
2022/06/14 11:52:53;;;;;;;1.50;0.80;;;29.40;1.00;;;;;;5079914;28;20462;-74
2022/06/14 11:55:30;;;;;;;0.90;0.70;;;29.00;1.00;;;;;;5086992;28;20905;-74
2022/06/14 11:58:12;;;;;;;1.00;0.87;;;28.90;1.00;;;;;;5074024;28;20559;-72
2022/06/14 12:00:51;;;;;;;2.13;1.30;;;29.00;1.00;;;;;;5076474;28;20433;-75
2022/06/14 12:03:39;;;;;;;1.77;0.80;;;29.00;1.00;;;;;;5088640;28;20962;-76
2022/06/14 12:06:18;;;;;;;1.20;0.90;;;28.90;1.00;;;;;;5081768;28;20514;-74
2022/06/14 12:09:14;;;;;;;1.10;0.70;;;29.30;1.00;;;;;;5083944;28;20560;-73
2022/06/14 12:11:55;;;;;;;1.20;0.70;;;29.40;1.00;;;;;;5080127;28;21092;-73
2022/06/14 12:14:50;;;;;;;1.03;0.80;;;29.20;1.00;;;;;;5071679;28;20448;-73
2022/06/14 12:17:23;;;;;;;1.47;0.60;;;29.30;1.00;;;;;;5077139;28;20478;-73
2022/06/14 12:19:58;;;;;;;0.80;0.60;;;29.80;1.00;;;;;;5091220;28;20561;-73
2022/06/14 12:22:34;;;;;;;1.10;0.77;;;30.00;1.00;;;;;;5085766;28;20545;-73
2022/06/14 12:27:56;;;;;;;0.90;0.67;;;30.50;1.00;;;;;;5086712;28;20492;-74
2022/06/14 12:30:26;;;;;;;1.00;0.70;;;30.20;1.00;;;;;;5094587;28;20963;-73
2022/06/14 12:33:00;;;;;;;1.80;0.60;;;30.40;1.00;;;;;;5099097;28;21130;-73
2022/06/14 12:35:31;;;;;;;0.80;0.67;;;30.60;1.00;;;;;;5093793;28;20465;-73
2022/06/14 12:38:01;;;;;;;0.87;0.70;;;30.30;1.00;;;;;;5087922;28;20466;-76
2022/06/14 12:40:35;;;;;;;1.00;0.70;;;29.70;1.00;;;;;;5098988;28;20469;-77
2022/06/14 12:43:09;;;;;;;1.73;0.70;;;30.30;1.00;;;;;;5079715;28;20529;-75
2022/06/14 12:45:42;;;;;;;1.13;0.80;;;30.10;1.00;;;;;;5079357;28;20462;-74
2022/06/14 12:48:21;;;;;;;1.13;0.60;;;29.70;1.00;;;;;;5089686;28;20541;-74
2022/06/14 12:50:52;;;;;;;1.90;0.60;;;29.70;1.00;;;;;;5084818;28;20516;-76
2022/06/14 12:53:27;;;;;;;1.67;0.70;;;29.80;1.00;;;;;;5083765;28;20489;-73
2022/06/14 12:56:00;;;;;;;1.30;0.60;;;29.60;1.00;;;;;;5081551;28;20939;-73
2022/06/14 12:58:38;;;;;;;2.60;0.63;;;29.50;1.00;;;;;;5089923;28;20472;-71
2022/06/14 13:01:12;;;;;;;1.30;0.70;;;29.50;1.00;;;;;;5089488;28;20564;-73
2022/06/14 13:03:48;;;;;;;1.00;0.60;;;30.00;1.00;;;;;;5082648;28;20935;-74
2022/06/14 13:06:39;;;;;;;1.60;0.73;;;30.30;1.00;;;;;;5092399;28;20510;-74
2022/06/14 13:09:16;;;;;;;2.33;0.70;;;30.10;1.00;;;;;;5081324;28;20580;-74
2022/06/14 13:11:55;;;;;;;1.17;0.67;;;29.90;1.00;;;;;;5085542;28;20481;-75
2022/06/14 13:14:29;;;;;;;1.40;0.80;;;29.20;1.00;;;;;;5079925;28;20485;-74
2022/06/14 13:17:13;;;;;;;1.00;0.60;;;29.10;1.00;;;;;;5085081;28;20621;-73
2022/06/14 13:19:47;;;;;;;0.80;0.60;;;28.80;1.00;;;;;;5081194;28;20540;-74
2022/06/14 13:22:28;;;;;;;0.80;0.63;;;28.60;1.00;;;;;;5083763;28;20454;-76
2022/06/14 13:25:11;;;;;;;1.10;0.70;;;28.80;1.00;;;;;;5089244;28;20524;-73
2022/06/14 13:27:46;;;;;;;2.37;0.60;;;28.60;1.00;;;;;;5088757;28;20456;-75
2022/06/14 13:30:20;;;;;;;1.20;0.60;;;28.60;1.00;;;;;;5102448;28;20806;-73
2022/06/14 13:33:05;;;;;;;0.80;0.60;;;28.80;1.00;;;;;;5099521;28;20465;-75
2022/06/14 13:35:52;;;;;;;1.40;0.70;;;29.00;1.00;;;;;;5091033;28;20515;-74
2022/06/14 13:38:29;;;;;;;1.90;0.70;;;29.20;1.00;;;;;;5095454;28;20442;-73
2022/06/14 13:41:01;;;;;;;1.00;0.73;;;29.80;1.00;;;;;;5101142;28;20441;-74
2022/06/14 13:43:34;;;;;;;0.70;0.53;;;30.10;1.00;;;;;;5092097;28;20568;-75
2022/06/14 13:46:11;;;;;;;0.70;0.60;;;29.60;1.00;;;;;;5087919;28;20493;-75
2022/06/14 13:48:45;;;;;;;0.73;0.60;;;29.70;1.00;;;;;;5097222;28;20449;-73
2022/06/14 13:51:20;;;;;;;0.90;0.67;;;28.60;1.00;;;;;;5098648;28;20461;-74
2022/06/14 13:53:53;;;;;;;1.23;0.60;;;28.90;1.00;;;;;;5098566;28;20551;-74
2022/06/14 13:56:23;;;;;;;0.87;0.50;;;29.20;1.00;;;;;;5098385;28;20509;-75
2022/06/14 13:58:59;;;;;;;1.20;0.87;;;29.30;1.00;;;;;;5099255;28;20810;-74